Time;durP1;ratioP1;P1;durP2;ratioP2;P2;SDS_P1;SDS_P2;PMS_P1;PMS_P2;Temp;Humidity;BMP_temperature;BMP_pressure;BME280_temperature;BME280_humidity;BME280_pressure;Samples;Min_cycle;Max_cycle;Signal;HPM_P1;HPM_P2
2023/09/10 00:01:09;;;;;;;;;11.33;9.67;;;;;-146.67;100.00;57155.34;5103956;28;10263;-74
2023/09/10 00:03:35;;;;;;;;;10.67;9.00;;;;;-146.67;100.00;57155.34;5102861;28;11424;-74
2023/09/10 00:06:03;;;;;;;;;8.33;8.33;;;;;-146.67;100.00;57155.34;5102974;28;9888;-74
2023/09/10 00:08:28;;;;;;;;;8.00;8.00;;;;;-146.67;100.00;57155.34;5102765;28;8845;-75
2023/09/10 00:10:55;;;;;;;;;10.00;9.00;;;;;-146.67;100.00;57155.34;5104278;28;8950;-74
2023/09/10 00:13:21;;;;;;;;;9.67;9.00;;;;;-146.67;100.00;57155.34;5086395;28;8795;-74
2023/09/10 00:15:46;;;;;;;;;8.33;8.33;;;;;-146.67;100.00;57155.34;5102434;28;9388;-75
2023/09/10 00:18:12;;;;;;;;;9.67;8.67;;;;;-146.67;100.00;57155.34;5104480;28;8814;-75
2023/09/10 00:20:38;;;;;;;;;9.33;7.67;;;;;-146.67;100.00;57155.34;5119345;28;8815;-74
2023/09/10 00:23:03;;;;;;;;;9.00;7.67;;;;;-146.67;100.00;57155.34;5102232;28;10421;-74
2023/09/10 00:25:29;;;;;;;;;11.33;8.67;;;;;-146.67;100.00;57155.34;5104497;28;8892;-74
2023/09/10 00:27:56;;;;;;;;;8.67;8.00;;;;;-146.67;100.00;57155.34;5104311;28;8815;-74
2023/09/10 00:30:22;;;;;;;;;10.67;8.33;;;;;-146.67;100.00;57155.34;5085352;28;8890;-74
2023/09/10 00:32:47;;;;;;;;;12.00;10.00;;;;;-146.67;100.00;57155.34;5104038;28;9098;-74
2023/09/10 00:35:13;;;;;;;;;12.00;10.00;;;;;-146.67;100.00;57155.34;5104225;28;8802;-74
2023/09/10 00:37:39;;;;;;;;;14.00;10.67;;;;;-146.67;100.00;57155.34;5103893;28;8889;-74
2023/09/10 00:40:05;;;;;;;;;11.67;10.67;;;;;-146.67;100.00;57155.34;5103822;28;8787;-74
2023/09/10 00:42:31;;;;;;;;;12.33;11.00;;;;;-146.67;100.00;57155.34;5102673;28;11399;-74
2023/09/10 00:44:56;;;;;;;;;12.00;11.33;;;;;-146.67;100.00;57155.34;5102362;28;9450;-74
2023/09/10 00:47:22;;;;;;;;;12.33;10.67;;;;;-146.67;100.00;57155.34;5104093;28;8800;-75
2023/09/10 00:49:49;;;;;;;;;15.67;11.33;;;;;-146.67;100.00;57155.34;5105380;28;8749;-74
2023/09/10 00:52:16;;;;;;;;;11.67;8.67;;;;;-146.67;100.00;57155.34;5084499;28;8964;-74
2023/09/10 00:54:42;;;;;;;;;11.00;10.00;;;;;-146.67;100.00;57155.34;5104097;28;9121;-74
2023/09/10 00:57:07;;;;;;;;;15.67;10.67;;;;;-146.67;100.00;57155.34;5103733;28;9122;-74
2023/09/10 00:59:34;;;;;;;;;10.00;10.00;;;;;-146.67;100.00;57155.34;5101872;28;8827;-74
2023/09/10 01:02:00;;;;;;;;;11.00;9.33;;;;;-146.67;100.00;57155.34;5103680;28;9712;-74
2023/09/10 01:04:26;;;;;;;;;9.67;7.00;;;;;-146.67;100.00;57155.34;5102173;28;9981;-74
2023/09/10 01:06:52;;;;;;;;;12.00;9.67;;;;;-146.67;100.00;57155.34;5101735;28;8963;-74
2023/09/10 01:09:17;;;;;;;;;7.00;6.67;;;;;-146.67;100.00;57155.34;5103391;28;8766;-75
2023/09/10 01:12:09;;;;;;;;;6.67;6.67;;;;;-146.67;100.00;57155.34;5102037;28;11493;-74
2023/09/10 01:14:42;;;;;;;;;8.00;7.00;;;;;-146.67;100.00;57155.34;5101847;28;8753;-74
2023/09/10 01:17:49;;;;;;;;;9.00;8.00;;;;;-146.67;100.00;57155.34;5102317;28;9024;-74
2023/09/10 01:20:19;;;;;;;;;8.00;7.67;;;;;-146.67;100.00;57155.34;5101438;28;8986;-74
2023/09/10 01:23:01;;;;;;;;;7.33;7.33;;;;;-146.67;100.00;57155.34;5101906;28;9131;-74
2023/09/10 01:25:27;;;;;;;;;13.00;7.67;;;;;-146.67;100.00;57155.34;5102009;28;9149;-74
2023/09/10 01:27:52;;;;;;;;;9.00;6.00;;;;;-146.67;100.00;57155.34;5103497;28;9211;-74
2023/09/10 01:30:17;;;;;;;;;8.67;7.67;;;;;-146.67;100.00;57155.34;5100371;28;8900;-74
2023/09/10 01:32:43;;;;;;;;;6.67;6.33;;;;;-146.67;100.00;57155.34;5119186;28;8888;-74
2023/09/10 01:35:39;;;;;;;;;6.67;6.67;;;;;-146.67;100.00;57155.34;5112705;28;8813;-74
2023/09/10 01:38:16;;;;;;;;;7.67;7.67;;;;;-146.67;100.00;57155.34;5110661;28;8817;-74
2023/09/10 01:41:03;;;;;;;;;8.00;6.67;;;;;-146.67;100.00;57155.34;5101389;28;9228;-74
2023/09/10 01:43:31;;;;;;;;;11.33;8.00;;;;;-146.67;100.00;57155.34;5103261;28;9150;-74
2023/09/10 01:45:56;;;;;;;;;8.67;8.00;;;;;-146.67;100.00;57155.34;5102820;28;9440;-74
2023/09/10 01:48:26;;;;;;;;;9.33;7.00;;;;;-146.67;100.00;57155.34;5100987;28;9126;-74
2023/09/10 01:50:53;;;;;;;;;9.00;9.00;;;;;-146.67;100.00;57155.34;5102430;28;8719;-74
2023/09/10 01:53:18;;;;;;;;;9.67;7.67;;;;;-146.67;100.00;57155.34;5101612;28;9042;-74
2023/09/10 01:55:44;;;;;;;;;9.33;7.33;;;;;-146.67;100.00;57155.34;5101452;28;10050;-74
2023/09/10 01:58:12;;;;;;;;;8.67;6.67;;;;;-146.67;100.00;57155.34;5101777;28;9753;-74
2023/09/10 02:00:38;;;;;;;;;9.67;8.33;;;;;-146.67;100.00;57155.34;5100880;28;9051;-75
2023/09/10 02:03:04;;;;;;;;;10.00;7.50;;;;;-146.67;100.00;57155.34;5101961;28;9348;-74
2023/09/10 02:05:30;;;;;;;;;10.67;8.67;;;;;-146.67;100.00;57155.34;5101423;28;9897;-74
2023/09/10 02:07:55;;;;;;;;;8.67;7.33;;;;;-146.67;100.00;57155.34;5102866;28;8885;-74
2023/09/10 02:10:21;;;;;;;;;8.00;8.00;;;;;-146.67;100.00;57155.34;5101083;28;8841;-74
2023/09/10 02:12:46;;;;;;;;;13.00;9.00;;;;;-146.67;100.00;57155.34;5106486;28;8989;-74
2023/09/10 02:15:11;;;;;;;;;15.33;9.33;;;;;-146.67;100.00;57155.34;5104757;28;9965;-74
2023/09/10 02:17:37;;;;;;;;;10.67;8.67;;;;;-146.67;100.00;57155.34;5104315;28;8818;-74
2023/09/10 02:20:09;;;;;;;;;9.00;9.00;;;;;-146.67;100.00;57155.34;5103654;28;8809;-74
2023/09/10 02:22:38;;;;;;;;;13.33;12.00;;;;;-146.67;100.00;57155.34;5105817;28;8803;-74
2023/09/10 02:25:04;;;;;;;;;11.00;10.00;;;;;-146.67;100.00;57155.34;5104846;28;10281;-74
2023/09/10 02:27:31;;;;;;;;;12.33;10.67;;;;;-146.67;100.00;57155.34;5106223;28;9337;-74
2023/09/10 02:29:57;;;;;;;;;11.00;8.67;;;;;-146.67;100.00;57155.34;5105903;28;8894;-74
2023/09/10 02:32:23;;;;;;;;;9.00;7.33;;;;;-146.67;100.00;57155.34;5104224;28;9130;-74
2023/09/10 02:34:51;;;;;;;;;8.33;7.00;;;;;-146.67;100.00;57155.34;5106238;28;8798;-74
2023/09/10 02:37:17;;;;;;;;;8.33;7.00;;;;;-146.67;100.00;57155.34;5088023;28;9059;-74
2023/09/10 02:39:42;;;;;;;;;12.67;7.00;;;;;-146.67;100.00;57155.34;5104203;28;9274;-74
2023/09/10 02:42:08;;;;;;;;;10.67;8.33;;;;;-146.67;100.00;57155.34;5106112;28;8791;-74
2023/09/10 02:44:33;;;;;;;;;8.00;7.67;;;;;-146.67;100.00;57155.34;5105491;28;9554;-75
2023/09/10 02:46:59;;;;;;;;;10.00;9.67;;;;;-146.67;100.00;57155.34;5103996;28;8838;-74
2023/09/10 02:49:24;;;;;;;;;8.33;8.33;;;;;-146.67;100.00;57155.34;5105104;28;8817;-74
2023/09/10 02:51:50;;;;;;;;;10.33;9.67;;;;;-146.67;100.00;57155.34;5104467;28;8795;-74
2023/09/10 02:54:16;;;;;;;;;13.33;10.00;;;;;-146.67;100.00;57155.34;5103981;28;9898;-74
2023/09/10 02:56:41;;;;;;;;;11.00;9.00;;;;;-146.67;100.00;57155.34;5104482;28;9247;-74
2023/09/10 02:59:06;;;;;;;;;9.00;8.00;;;;;-146.67;100.00;57155.34;5104305;28;8807;-74
2023/09/10 03:01:32;;;;;;;;;10.67;9.33;;;;;-146.67;100.00;57155.34;5104386;28;8881;-74
2023/09/10 03:03:57;;;;;;;;;11.33;9.67;;;;;-146.67;100.00;57155.34;5103666;28;8823;-74
2023/09/10 03:06:23;;;;;;;;;12.00;10.00;;;;;-146.67;100.00;57155.34;5087399;28;8850;-74
2023/09/10 03:08:48;;;;;;;;;9.33;8.33;;;;;-146.67;100.00;57155.34;5105677;28;8799;-74
2023/09/10 03:11:14;;;;;;;;;9.00;9.00;;;;;-146.67;100.00;57155.34;5085832;28;8920;-74
2023/09/10 03:13:39;;;;;;;;;9.00;8.67;;;;;-146.67;100.00;57155.34;5085011;28;8830;-74
2023/09/10 03:16:05;;;;;;;;;8.00;7.00;;;;;-146.67;100.00;57155.34;5083899;28;9638;-75
2023/09/10 03:18:30;;;;;;;;;9.67;6.67;;;;;-146.67;100.00;57155.34;5084045;28;9624;-74
2023/09/10 03:20:56;;;;;;;;;8.33;5.67;;;;;-146.67;100.00;57155.34;5084229;28;8785;-74
2023/09/10 03:23:21;;;;;;;;;10.67;9.00;;;;;-146.67;100.00;57155.34;5083032;28;9943;-74
2023/09/10 03:25:47;;;;;;;;;6.00;6.00;;;;;-146.67;100.00;57155.34;5083768;28;8810;-75
2023/09/10 03:28:12;;;;;;;;;7.00;7.00;;;;;-146.67;100.00;57155.34;5084930;28;8782;-74
2023/09/10 03:30:38;;;;;;;;;7.00;6.00;;;;;-146.67;100.00;57155.34;5082673;28;8819;-74
2023/09/10 03:33:03;;;;;;;;;6.33;6.33;;;;;-146.67;100.00;57155.34;5083441;28;10081;-74
2023/09/10 03:35:28;;;;;;;;;8.67;8.00;;;;;-146.67;100.00;57155.34;5066887;28;8813;-74
2023/09/10 03:37:54;;;;;;;;;8.67;8.67;;;;;-146.67;100.00;57155.34;5084652;28;9659;-74
2023/09/10 03:40:19;;;;;;;;;7.67;7.33;;;;;-146.67;100.00;57155.34;5084850;28;8812;-74
2023/09/10 03:42:45;;;;;;;;;9.67;8.67;;;;;-146.67;100.00;57155.34;5085022;28;8805;-74
2023/09/10 03:45:10;;;;;;;;;9.33;8.33;;;;;-146.67;100.00;57155.34;5083541;28;8888;-74
2023/09/10 03:47:36;;;;;;;;;9.67;9.67;;;;;-146.67;100.00;57155.34;5083230;28;8833;-74
2023/09/10 03:50:03;;;;;;;;;7.67;7.00;;;;;-146.67;100.00;57155.34;5083793;28;8766;-75
2023/09/10 03:52:28;;;;;;;;;6.67;6.67;;;;;-146.67;100.00;57155.34;5083356;28;9487;-74
2023/09/10 03:54:54;;;;;;;;;9.00;9.00;;;;;-146.67;100.00;57155.34;5084657;28;9220;-74
2023/09/10 03:57:20;;;;;;;;;1.00;0.00;;;;;-146.67;100.00;57155.34;5083055;28;8817;-74
2023/09/10 03:59:45;;;;;;;;;9.33;8.33;;;;;-146.67;100.00;57155.34;5083417;28;8919;-74
2023/09/10 04:02:11;;;;;;;;;9.00;8.33;;;;;-146.67;100.00;57155.34;5083002;28;8815;-74
2023/09/10 04:04:37;;;;;;;;;9.67;8.00;;;;;-146.67;100.00;57155.34;5084793;28;8890;-75
2023/09/10 04:07:03;;;;;;;;;8.00;8.00;;;;;-146.67;100.00;57155.34;5082547;28;9171;-74
2023/09/10 04:09:29;;;;;;;;;12.33;8.00;;;;;-146.67;100.00;57155.34;5083864;28;8833;-74
2023/09/10 04:11:54;;;;;;;;;10.00;9.00;;;;;-146.67;100.00;57155.34;5084665;28;8873;-74
2023/09/10 04:14:20;;;;;;;;;11.33;7.33;;;;;-146.67;100.00;57155.34;5065497;28;8799;-74
2023/09/10 04:16:46;;;;;;;;;11.00;5.33;;;;;-146.67;100.00;57155.34;5065821;28;8813;-74
2023/09/10 04:19:11;;;;;;;;;10.00;6.33;;;;;-146.67;100.00;57155.34;5082662;28;11445;-74
2023/09/10 04:21:36;;;;;;;;;8.33;6.00;;;;;-146.67;100.00;57155.34;5083188;28;8847;-73
2023/09/10 04:24:02;;;;;;;;;7.33;7.00;;;;;-146.67;100.00;57155.34;5102682;28;8830;-74
2023/09/10 04:26:27;;;;;;;;;6.67;5.00;;;;;-146.67;100.00;57155.34;5104265;28;8807;-74
2023/09/10 04:28:53;;;;;;;;;8.33;7.00;;;;;-146.67;100.00;57155.34;5102380;28;8798;-74
2023/09/10 04:31:19;;;;;;;;;9.67;7.00;;;;;-146.67;100.00;57155.34;5103592;28;8791;-73
2023/09/10 04:33:44;;;;;;;;;8.33;7.67;;;;;-146.67;100.00;57155.34;5102384;28;9574;-74
2023/09/10 04:36:10;;;;;;;;;9.33;7.67;;;;;-146.67;100.00;57155.34;5103062;28;8823;-74
2023/09/10 04:38:35;;;;;;;;;9.33;8.00;;;;;-146.67;100.00;57155.34;5104040;28;8866;-74
2023/09/10 04:41:01;;;;;;;;;10.33;7.33;;;;;-146.67;100.00;57155.34;5102358;28;9901;-74
2023/09/10 04:43:26;;;;;;;;;9.00;7.33;;;;;-146.67;100.00;57155.34;5103574;28;8841;-75
2023/09/10 04:45:52;;;;;;;;;9.00;6.00;;;;;-146.67;100.00;57155.34;5085268;28;8865;-74
2023/09/10 04:48:17;;;;;;;;;8.00;7.00;;;;;-146.67;100.00;57155.34;5104059;28;8852;-74
2023/09/10 04:50:43;;;;;;;;;11.67;9.67;;;;;-146.67;100.00;57155.34;5101442;28;8810;-74
2023/09/10 04:53:10;;;;;;;;;5.33;5.00;;;;;-146.67;100.00;57155.34;5104028;28;8762;-74
2023/09/10 04:55:35;;;;;;;;;6.00;5.67;;;;;-146.67;100.00;57155.34;5102503;28;9331;-74
2023/09/10 04:58:06;;;;;;;;;7.67;7.00;;;;;-146.67;100.00;57155.34;5086268;28;9035;-74
2023/09/10 05:00:32;;;;;;;;;9.67;8.33;;;;;-146.67;100.00;57155.34;5083040;28;8758;-74
2023/09/10 05:02:57;;;;;;;;;6.00;6.00;;;;;-146.67;100.00;57155.34;5083085;28;9294;-74
2023/09/10 05:05:22;;;;;;;;;10.00;8.33;;;;;-146.67;100.00;57155.34;5083461;28;8919;-74
2023/09/10 05:07:49;;;;;;;;;8.00;8.00;;;;;-146.67;100.00;57155.34;5083175;28;8911;-74
2023/09/10 05:10:15;;;;;;;;;8.33;8.33;;;;;-146.67;100.00;57155.34;5083470;28;8791;-74
2023/09/10 05:12:41;;;;;;;;;8.67;7.33;;;;;-146.67;100.00;57155.34;5077763;28;9018;-75
2023/09/10 05:15:07;;;;;;;;;7.67;7.33;;;;;-146.67;100.00;57155.34;5063180;28;8796;-74
2023/09/10 05:17:33;;;;;;;;;10.00;8.00;;;;;-146.67;100.00;57155.34;5061680;28;8934;-80
2023/09/10 05:19:58;;;;;;;;;16.33;8.67;;;;;-146.67;100.00;57155.34;5059975;28;9999;-76
2023/09/10 05:22:23;;;;;;;;;9.33;8.67;;;;;-146.67;100.00;57155.34;5080863;28;8956;-81
2023/09/10 05:24:49;;;;;;;;;9.33;6.00;;;;;-146.67;100.00;57155.34;5070602;28;8858;-79
2023/09/10 05:27:14;;;;;;;;;9.00;9.00;;;;;-146.67;100.00;57155.34;5080505;28;8880;-79
2023/09/10 05:29:40;;;;;;;;;9.00;7.00;;;;;-146.67;100.00;57155.34;5079758;28;10016;-79
2023/09/10 05:32:05;;;;;;;;;12.33;9.67;;;;;-146.67;100.00;57155.34;5081301;28;8823;-81
2023/09/10 05:34:31;;;;;;;;;12.67;11.00;;;;;-146.67;100.00;57155.34;5073688;28;8817;-79
2023/09/10 05:36:56;;;;;;;;;10.00;8.00;;;;;-146.67;100.00;57155.34;5072151;28;8853;-82
2023/09/10 05:39:21;;;;;;;;;9.67;8.00;;;;;-146.67;100.00;57155.34;5072326;28;8825;-81
2023/09/10 05:41:47;;;;;;;;;8.00;8.00;;;;;-146.67;100.00;57155.34;5072436;28;8815;-77
2023/09/10 05:44:12;;;;;;;;;11.00;8.00;;;;;-146.67;100.00;57155.34;5071171;28;8825;-77
2023/09/10 05:46:38;;;;;;;;;10.33;10.00;;;;;-146.67;100.00;57155.34;5087613;28;8847;-80
2023/09/10 05:49:03;;;;;;;;;8.00;8.00;;;;;-146.67;100.00;57155.34;5081855;28;8816;-78
2023/09/10 05:51:28;;;;;;;;;9.00;9.00;;;;;-146.67;100.00;57155.34;5078818;28;8839;-77
2023/09/10 05:53:54;;;;;;;;;9.33;9.00;;;;;-146.67;100.00;57155.34;5082112;28;8823;-77
2023/09/10 05:56:19;;;;;;;;;10.33;9.00;;;;;-146.67;100.00;57155.34;5081437;28;8813;-78
2023/09/10 05:58:48;;;;;;;;;8.67;7.67;;;;;-146.67;100.00;57155.34;5064053;28;8844;-78
2023/09/10 06:01:13;;;;;;;;;10.00;8.67;;;;;-146.67;100.00;57155.34;5079537;28;8794;-77
2023/09/10 06:03:39;;;;;;;;;7.67;7.67;;;;;-146.67;100.00;57155.34;5081565;28;9270;-77
2023/09/10 06:06:05;;;;;;;;;9.00;8.00;;;;;-146.67;100.00;57155.34;5080576;28;8793;-78
2023/09/10 06:08:31;;;;;;;;;11.67;11.67;;;;;-146.67;100.00;57155.34;5086461;28;10010;-78
2023/09/10 06:10:56;;;;;;;;;9.67;9.67;;;;;-146.67;100.00;57155.34;5080998;28;8774;-78
2023/09/10 06:13:22;;;;;;;;;12.00;11.00;;;;;-146.67;100.00;57155.34;5082099;28;9314;-78
2023/09/10 06:15:47;;;;;;;;;17.00;13.75;;;;;-146.67;100.00;57155.34;5076251;28;8871;-77
2023/09/10 06:18:12;;;;;;;;;9.00;6.33;;;;;-146.67;100.00;57155.34;5077903;28;9877;-77
2023/09/10 06:20:38;;;;;;;;;14.00;13.00;;;;;-146.67;100.00;57155.34;5078954;28;8821;-77
2023/09/10 06:23:04;;;;;;;;;10.33;9.33;;;;;-146.67;100.00;57155.34;5089676;28;8830;-77
2023/09/10 06:25:29;;;;;;;;;11.33;11.33;;;;;-146.67;100.00;57155.34;5081565;28;8819;-77
2023/09/10 06:27:55;;;;;;;;;8.67;7.00;;;;;-146.67;100.00;57155.34;5100631;28;8835;-77
2023/09/10 06:30:20;;;;;;;;;12.00;11.00;;;;;-146.67;100.00;57155.34;5100342;28;8802;-78
2023/09/10 06:32:48;;;;;;;;;12.00;9.33;;;;;-146.67;100.00;57155.34;5101148;28;8795;-78
2023/09/10 06:35:14;;;;;;;;;9.00;8.00;;;;;-146.67;100.00;57155.34;5095637;28;8777;-77
2023/09/10 06:37:40;;;;;;;;;9.00;7.33;;;;;-146.67;100.00;57155.34;5101492;28;9518;-78
2023/09/10 06:40:06;;;;;;;;;13.00;9.67;;;;;-146.67;100.00;57155.34;5099632;28;8815;-78
2023/09/10 06:42:31;;;;;;;;;11.00;9.67;;;;;-146.67;100.00;57155.34;5082483;28;8748;-78
2023/09/10 06:44:57;;;;;;;;;10.33;8.00;;;;;-146.67;100.00;57155.34;5099482;28;10355;-78
2023/09/10 06:47:22;;;;;;;;;10.67;7.00;;;;;-146.67;100.00;57155.34;5104622;28;8825;-78
2023/09/10 06:49:47;;;;;;;;;9.00;8.00;;;;;-146.67;100.00;57155.34;5097277;28;8819;-78
2023/09/10 06:52:13;;;;;;;;;12.67;10.00;;;;;-146.67;100.00;57155.34;5099406;28;8823;-78
2023/09/10 06:54:38;;;;;;;;;11.00;8.00;;;;;-146.67;100.00;57155.34;5101355;28;8819;-78
2023/09/10 06:57:04;;;;;;;;;9.00;9.00;;;;;-146.67;100.00;57155.34;5101462;28;8839;-78
2023/09/10 06:59:30;;;;;;;;;10.00;6.33;;;;;-146.67;100.00;57155.34;5112374;28;8827;-78
2023/09/10 07:01:56;;;;;;;;;7.67;6.67;;;;;-146.67;100.00;57155.34;5094680;28;8843;-77
2023/09/10 07:04:24;;;;;;;;;9.33;9.00;;;;;-146.67;100.00;57155.34;5103449;28;8907;-77
2023/09/10 07:06:51;;;;;;;;;12.00;10.00;;;;;-146.67;100.00;57155.34;5103225;28;11412;-78
2023/09/10 07:09:22;;;;;;;;;8.33;7.00;;;;;-146.67;100.00;57155.34;5104955;28;9098;-77
2023/09/10 07:11:51;;;;;;;;;9.33;7.00;;;;;-146.67;100.00;57155.34;5123330;28;9268;-77
2023/09/10 07:14:17;;;;;;;;;9.00;7.67;;;;;-146.67;100.00;57155.34;5118706;28;8928;-79
2023/09/10 07:16:43;;;;;;;;;9.00;9.00;;;;;-146.67;100.00;57155.34;5104695;28;9233;-79
2023/09/10 07:19:08;;;;;;;;;10.33;7.67;;;;;-146.67;100.00;57155.34;5104816;28;9594;-80
2023/09/10 07:21:33;;;;;;;;;9.00;9.00;;;;;-146.67;100.00;57155.34;5104272;28;8779;-78
2023/09/10 07:24:02;;;;;;;;;14.33;8.00;;;;;-146.67;100.00;57155.34;5103803;28;8849;-77
2023/09/10 07:26:28;;;;;;;;;9.00;7.00;;;;;-146.67;100.00;57155.34;5093597;28;10344;-70
2023/09/10 07:28:53;;;;;;;;;6.67;5.67;;;;;-146.67;100.00;57155.34;5086288;28;8978;-71
2023/09/10 07:31:19;;;;;;;;;6.33;6.33;;;;;-146.67;100.00;57155.34;5104463;28;8850;-70
2023/09/10 07:33:45;;;;;;;;;7.00;7.00;;;;;-146.67;100.00;57155.34;5107772;28;8987;-72
2023/09/10 07:36:10;;;;;;;;;9.75;8.75;;;;;-146.67;100.00;57155.34;5125163;28;8780;-73
2023/09/10 07:38:36;;;;;;;;;9.33;7.00;;;;;-146.67;100.00;57155.34;5106749;28;9281;-74
2023/09/10 07:41:01;;;;;;;;;10.00;7.67;;;;;-146.67;100.00;57155.34;5103089;28;8807;-73
2023/09/10 07:43:26;;;;;;;;;8.67;7.33;;;;;-146.67;100.00;57155.34;5098149;28;8837;-74
2023/09/10 07:45:52;;;;;;;;;10.33;8.00;;;;;-146.67;100.00;57155.34;5083391;28;9879;-74
2023/09/10 07:48:17;;;;;;;;;8.00;6.33;;;;;-146.67;100.00;57155.34;5102941;28;8913;-73
2023/09/10 07:51:00;;;;;;;;;12.67;8.00;;;;;-146.67;100.00;57155.34;5114285;28;8809;-73
2023/09/10 07:53:26;;;;;;;;;12.67;6.67;;;;;-146.67;100.00;57155.34;5106702;28;8749;-73
2023/09/10 07:55:52;;;;;;;;;9.33;8.33;;;;;-146.67;100.00;57155.34;5109969;28;9307;-73
2023/09/10 07:58:18;;;;;;;;;8.00;7.00;;;;;-146.67;100.00;57155.34;5123760;28;8797;-81
2023/09/10 08:00:44;;;;;;;;;9.67;7.67;;;;;-146.67;100.00;57155.34;5100713;28;8799;-74
2023/09/10 08:03:14;;;;;;;;;8.67;6.67;;;;;-146.67;100.00;57155.34;5095262;28;11476;-75
2023/09/10 08:05:40;;;;;;;;;11.33;9.67;;;;;-146.67;100.00;57155.34;5102895;28;8763;-74
2023/09/10 08:08:05;;;;;;;;;6.33;6.33;;;;;-146.67;100.00;57155.34;5112403;28;9012;-73
2023/09/10 08:10:32;;;;;;;;;10.00;6.67;;;;;-146.67;100.00;57155.34;5108612;28;8830;-76
2023/09/10 08:12:58;;;;;;;;;7.67;6.00;;;;;-146.67;100.00;57155.34;5086000;28;8803;-73
2023/09/10 08:15:24;;;;;;;;;7.33;7.33;;;;;-146.67;100.00;57155.34;5103707;28;9211;-78
2023/09/10 08:17:53;;;;;;;;;9.00;7.67;;;;;-146.67;100.00;57155.34;5104237;28;8795;-76
2023/09/10 08:20:18;;;;;;;;;9.00;7.00;;;;;-146.67;100.00;57155.34;5102474;28;8867;-75
2023/09/10 08:22:44;;;;;;;;;10.00;8.00;;;;;-146.67;100.00;57155.34;5122045;28;8905;-74
2023/09/10 08:25:10;;;;;;;;;8.00;6.33;;;;;-146.67;100.00;57155.34;5085978;28;9231;-75
2023/09/10 08:27:38;;;;;;;;;8.00;7.00;;;;;-146.67;100.00;57155.34;5105680;28;8817;-74
2023/09/10 08:30:06;;;;;;;;;8.33;7.00;;;;;-146.67;100.00;57155.34;5113380;28;8853;-74
2023/09/10 08:32:32;;;;;;;;;9.33;9.33;;;;;-146.67;100.00;57155.34;5112232;28;8926;-74
2023/09/10 08:34:58;;;;;;;;;6.00;6.00;;;;;-146.67;100.00;57155.34;5104921;28;9176;-74
2023/09/10 08:37:23;;;;;;;;;8.00;7.00;;;;;-146.67;100.00;57155.34;5106626;28;9048;-75
2023/09/10 08:39:49;;;;;;;;;10.33;8.00;;;;;-146.67;100.00;57155.34;5117944;28;8902;-75
2023/09/10 08:42:30;;;;;;;;;10.33;9.67;;;;;-146.67;100.00;57155.34;5103709;28;8860;-75
2023/09/10 08:45:00;;;;;;;;;8.00;6.33;;;;;-146.67;100.00;57155.34;5105234;28;9037;-74
2023/09/10 08:47:27;;;;;;;;;9.00;6.33;;;;;-146.67;100.00;57155.34;5114972;28;8857;-72
2023/09/10 08:50:02;;;;;;;;;6.33;5.67;;;;;-146.67;100.00;57155.34;5083687;28;8916;-87
2023/09/10 08:52:30;;;;;;;;;10.33;9.33;;;;;-146.67;100.00;57155.34;5102615;28;9920;-77
2023/09/10 08:54:56;;;;;;;;;9.00;8.00;;;;;-146.67;100.00;57155.34;5100514;28;9104;-73
2023/09/10 08:57:23;;;;;;;;;8.00;8.00;;;;;-146.67;100.00;57155.34;5096856;28;9906;-73
2023/09/10 08:59:51;;;;;;;;;8.67;7.67;;;;;-146.67;100.00;57155.34;5093562;28;8897;-78
2023/09/10 09:02:16;;;;;;;;;8.00;6.67;;;;;-146.67;100.00;57155.34;5095188;28;8938;-76
2023/09/10 09:04:44;;;;;;;;;6.33;5.67;;;;;-146.67;100.00;57155.34;5098061;28;10074;-76
2023/09/10 09:07:12;;;;;;;;;8.33;7.00;;;;;-146.67;100.00;57155.34;5113861;28;8854;-76
2023/09/10 09:09:44;;;;;;;;;5.67;5.67;;;;;-146.67;100.00;57155.34;5116678;28;8889;-76
2023/09/10 09:12:11;;;;;;;;;8.33;6.00;;;;;-146.67;100.00;57155.34;5124082;28;9124;-76
2023/09/10 09:14:42;;;;;;;;;7.00;6.00;;;;;-146.67;100.00;57155.34;5123543;28;9088;-76
2023/09/10 09:17:12;;;;;;;;;6.00;6.00;;;;;-146.67;100.00;57155.34;5105406;28;8834;-77
2023/09/10 09:19:38;;;;;;;;;10.00;9.00;;;;;-146.67;100.00;57155.34;5117339;28;9148;-77
2023/09/10 09:22:06;;;;;;;;;9.00;7.67;;;;;-146.67;100.00;57155.34;5118940;28;9048;-76
2023/09/10 09:24:33;;;;;;;;;10.00;9.00;;;;;-146.67;100.00;57155.34;5103328;28;9158;-76
2023/09/10 09:27:01;;;;;;;;;8.00;6.00;;;;;-146.67;100.00;57155.34;5101874;28;9041;-76
2023/09/10 09:29:28;;;;;;;;;9.33;7.33;;;;;-146.67;100.00;57155.34;5103598;28;9009;-76
2023/09/10 09:31:54;;;;;;;;;7.33;6.33;;;;;-146.67;100.00;57155.34;5102896;28;9004;-77
2023/09/10 09:34:20;;;;;;;;;7.33;7.00;;;;;-146.67;100.00;57155.34;5104300;28;9944;-77
2023/09/10 09:36:50;;;;;;;;;8.00;7.00;;;;;-146.67;100.00;57155.34;5113717;28;8843;-76
2023/09/10 09:39:17;;;;;;;;;9.00;9.00;;;;;-146.67;100.00;57155.34;5103727;28;8740;-77
2023/09/10 09:41:47;;;;;;;;;10.00;7.67;;;;;-146.67;100.00;57155.34;5102477;28;9125;-76
2023/09/10 09:44:13;;;;;;;;;9.67;8.67;;;;;-146.67;100.00;57155.34;5113404;28;9290;-79
2023/09/10 09:46:38;;;;;;;;;8.67;7.67;;;;;-146.67;100.00;57155.34;5093638;28;9076;-79
2023/09/10 09:49:05;;;;;;;;;7.00;7.00;;;;;-146.67;100.00;57155.34;5102466;28;9617;-81
2023/09/10 09:51:30;;;;;;;;;8.67;8.00;;;;;-146.67;100.00;57155.34;5092340;28;8851;-82
2023/09/10 09:53:56;;;;;;;;;9.00;8.00;;;;;-146.67;100.00;57155.34;5112830;28;9049;-77
2023/09/10 09:56:22;;;;;;;;;8.00;8.00;;;;;-146.67;100.00;57155.34;5121655;28;8793;-76
2023/09/10 09:58:47;;;;;;;;;10.00;8.67;;;;;-146.67;100.00;57155.34;5123332;28;8781;-76
2023/09/10 10:01:13;;;;;;;;;9.33;7.67;;;;;-146.67;100.00;57155.34;5088393;28;8821;-79
2023/09/10 10:03:39;;;;;;;;;8.00;8.00;;;;;-146.67;100.00;57155.34;5101151;28;11192;-75
2023/09/10 10:06:06;;;;;;;;;7.33;7.33;;;;;-146.67;100.00;57155.34;5100916;28;8753;-80
2023/09/10 10:08:32;;;;;;;;;9.00;9.00;;;;;-146.67;100.00;57155.34;5101105;28;8931;-80
2023/09/10 10:10:58;;;;;;;;;8.00;7.67;;;;;-146.67;100.00;57155.34;5100988;28;9072;-75
2023/09/10 10:13:26;;;;;;;;;9.33;7.33;;;;;-146.67;100.00;57155.34;5101377;28;9926;-80
2023/09/10 10:15:55;;;;;;;;;9.67;8.33;;;;;-146.67;100.00;57155.34;5100295;28;11479;-75
2023/09/10 10:18:22;;;;;;;;;9.33;8.00;;;;;-146.67;100.00;57155.34;5101204;28;9127;-77
2023/09/10 10:20:50;;;;;;;;;12.00;8.67;;;;;-146.67;100.00;57155.34;5102185;28;9024;-82
2023/09/10 10:23:20;;;;;;;;;16.33;12.33;;;;;-146.67;100.00;57155.34;5100933;28;10966;-75
2023/09/10 10:25:46;;;;;;;;;9.00;6.33;;;;;-146.67;100.00;57155.34;5101604;28;9177;-78
2023/09/10 10:28:13;;;;;;;;;9.50;9.50;;;;;-146.67;100.00;57155.34;5113817;28;9018;-78
2023/09/10 10:30:48;;;;;;;;;8.67;8.67;;;;;-146.67;100.00;57155.34;5122257;28;8773;-78
2023/09/10 10:33:16;;;;;;;;;8.67;7.67;;;;;-146.67;100.00;57155.34;5124164;28;10970;-78
2023/09/10 10:35:50;;;;;;;;;9.00;8.00;;;;;-146.67;100.00;57155.34;5097753;28;8997;-78
2023/09/10 10:38:21;;;;;;;;;10.33;9.00;;;;;-146.67;100.00;57155.34;5104376;28;8882;-78
2023/09/10 10:40:52;;;;;;;;;10.00;9.00;;;;;-146.67;100.00;57155.34;5121124;28;8979;-75
2023/09/10 10:43:29;;;;;;;;;12.00;10.00;;;;;-146.67;100.00;57155.34;5086958;28;10089;-77
2023/09/10 10:45:56;;;;;;;;;10.00;7.50;;;;;-146.67;100.00;57155.34;5104732;28;8950;-76
2023/09/10 10:48:26;;;;;;;;;13.25;11.75;;;;;-146.67;100.00;57155.34;5105430;28;9769;-76
2023/09/10 10:50:55;;;;;;;;;9.67;7.67;;;;;-146.67;100.00;57155.34;5109919;28;8789;-76
2023/09/10 10:53:23;;;;;;;;;11.50;9.25;;;;;-146.67;100.00;57155.34;5107557;28;9017;-76
2023/09/10 10:55:51;;;;;;;;;14.33;12.67;;;;;-146.67;100.00;57155.34;5104437;28;8877;-76
2023/09/10 10:58:21;;;;;;;;;10.67;9.67;;;;;-146.67;100.00;57155.34;5104250;28;8977;-77
2023/09/10 11:00:58;;;;;;;;;10.33;10.33;;;;;-146.67;100.00;57155.34;5104831;28;9120;-77
2023/09/10 11:03:25;;;;;;;;;12.67;11.67;;;;;-146.67;100.00;57155.34;5104037;28;10017;-78
2023/09/10 11:05:53;;;;;;;;;9.33;9.33;;;;;-146.67;100.00;57155.34;5109186;28;9053;-78
2023/09/10 11:08:26;;;;;;;;;9.67;8.33;;;;;-146.67;100.00;57155.34;5101731;28;8974;-77
2023/09/10 11:10:51;;;;;;;;;12.00;12.00;;;;;-146.67;100.00;57155.34;5098498;28;8851;-76